sensor_id;sensor_type;location;lat;lon;timestamp;temperature;humidity
16249;DHT22;8232;51.678;6.610;2022-09-09T00:01:41;14.50;99.90
16249;DHT22;8232;51.678;6.610;2022-09-09T00:04:15;14.50;53.40
16249;DHT22;8232;51.678;6.610;2022-09-09T00:06:45;14.50;15.50
16249;DHT22;8232;51.678;6.610;2022-09-09T00:09:17;14.50;1.00
16249;DHT22;8232;51.678;6.610;2022-09-09T00:11:47;14.50;1.00
16249;DHT22;8232;51.678;6.610;2022-09-09T00:14:21;14.50;1.00
16249;DHT22;8232;51.678;6.610;2022-09-09T00:16:53;14.50;1.00
16249;DHT22;8232;51.678;6.610;2022-09-09T00:19:23;14.50;17.80
16249;DHT22;8232;51.678;6.610;2022-09-09T00:21:58;14.40;70.20
16249;DHT22;8232;51.678;6.610;2022-09-09T00:24:34;14.30;99.90
16249;DHT22;8232;51.678;6.610;2022-09-09T00:27:10;14.30;76.00
16249;DHT22;8232;51.678;6.610;2022-09-09T00:29:43;14.30;82.90
16249;DHT22;8232;51.678;6.610;2022-09-09T00:32:13;14.10;99.90
16249;DHT22;8232;51.678;6.610;2022-09-09T00:34:47;14.20;99.90
16249;DHT22;8232;51.678;6.610;2022-09-09T00:37:14;14.30;99.90
16249;DHT22;8232;51.678;6.610;2022-09-09T00:39:44;14.20;99.90
16249;DHT22;8232;51.678;6.610;2022-09-09T00:42:15;14.30;99.90
16249;DHT22;8232;51.678;6.610;2022-09-09T00:44:52;14.30;99.90
16249;DHT22;8232;51.678;6.610;2022-09-09T00:47:34;14.30;99.90
16249;DHT22;8232;51.678;6.610;2022-09-09T00:50:22;14.50;67.80
16249;DHT22;8232;51.678;6.610;2022-09-09T00:53:02;14.50;1.00
16249;DHT22;8232;51.678;6.610;2022-09-09T00:55:41;14.60;1.00
16249;DHT22;8232;51.678;6.610;2022-09-09T00:58:11;14.60;1.00
16249;DHT22;8232;51.678;6.610;2022-09-09T01:00:43;14.50;1.00
16249;DHT22;8232;51.678;6.610;2022-09-09T01:03:22;14.60;1.00
16249;DHT22;8232;51.678;6.610;2022-09-09T01:06:02;14.70;99.90
16249;DHT22;8232;51.678;6.610;2022-09-09T01:08:59;14.80;99.90
16249;DHT22;8232;51.678;6.610;2022-09-09T01:11:36;14.70;1.00
16249;DHT22;8232;51.678;6.610;2022-09-09T01:14:14;14.70;99.90
16249;DHT22;8232;51.678;6.610;2022-09-09T01:16:45;14.70;1.00
16249;DHT22;8232;51.678;6.610;2022-09-09T01:19:19;14.70;99.90
16249;DHT22;8232;51.678;6.610;2022-09-09T01:21:54;14.60;1.00
16249;DHT22;8232;51.678;6.610;2022-09-09T01:24:26;14.50;1.00
16249;DHT22;8232;51.678;6.610;2022-09-09T01:26:58;14.50;1.00
16249;DHT22;8232;51.678;6.610;2022-09-09T01:29:25;14.40;1.00
16249;DHT22;8232;51.678;6.610;2022-09-09T01:31:54;14.40;70.60
16249;DHT22;8232;51.678;6.610;2022-09-09T01:34:22;14.30;99.90
16249;DHT22;8232;51.678;6.610;2022-09-09T01:36:53;14.20;99.90
16249;DHT22;8232;51.678;6.610;2022-09-09T01:39:22;14.20;99.90
16249;DHT22;8232;51.678;6.610;2022-09-09T01:41:49;14.10;99.90
16249;DHT22;8232;51.678;6.610;2022-09-09T01:44:17;14.20;99.90
16249;DHT22;8232;51.678;6.610;2022-09-09T01:46:45;14.10;99.90
16249;DHT22;8232;51.678;6.610;2022-09-09T01:49:13;14.10;99.90
16249;DHT22;8232;51.678;6.610;2022-09-09T01:51:41;14.10;99.90
16249;DHT22;8232;51.678;6.610;2022-09-09T01:54:09;14.10;99.90
16249;DHT22;8232;51.678;6.610;2022-09-09T01:56:42;14.10;99.90
16249;DHT22;8232;51.678;6.610;2022-09-09T01:59:21;14.10;99.90
16249;DHT22;8232;51.678;6.610;2022-09-09T02:01:57;14.10;99.90
16249;DHT22;8232;51.678;6.610;2022-09-09T02:04:37;14.20;99.90
16249;DHT22;8232;51.678;6.610;2022-09-09T02:07:16;14.30;99.90
16249;DHT22;8232;51.678;6.610;2022-09-09T02:09:48;14.20;99.90
16249;DHT22;8232;51.678;6.610;2022-09-09T02:12:19;14.30;99.90
16249;DHT22;8232;51.678;6.610;2022-09-09T02:14:53;14.30;99.90
16249;DHT22;8232;51.678;6.610;2022-09-09T02:17:27;14.20;99.90
16249;DHT22;8232;51.678;6.610;2022-09-09T02:20:02;14.20;99.90
16249;DHT22;8232;51.678;6.610;2022-09-09T02:22:31;14.30;99.90
16249;DHT22;8232;51.678;6.610;2022-09-09T02:25:00;14.40;99.90
16249;DHT22;8232;51.678;6.610;2022-09-09T02:27:27;14.40;99.90
16249;DHT22;8232;51.678;6.610;2022-09-09T02:29:58;14.40;99.90
16249;DHT22;8232;51.678;6.610;2022-09-09T02:32:28;14.50;97.30
16249;DHT22;8232;51.678;6.610;2022-09-09T02:34:58;14.50;59.00
16249;DHT22;8232;51.678;6.610;2022-09-09T02:37:31;14.60;8.60
16249;DHT22;8232;51.678;6.610;2022-09-09T02:40:01;14.60;15.10
16249;DHT22;8232;51.678;6.610;2022-09-09T02:42:28;14.60;15.60
16249;DHT22;8232;51.678;6.610;2022-09-09T02:44:56;14.70;1.00
16249;DHT22;8232;51.678;6.610;2022-09-09T02:47:27;14.70;1.00
16249;DHT22;8232;51.678;6.610;2022-09-09T02:50:03;14.70;87.30
16249;DHT22;8232;51.678;6.610;2022-09-09T02:52:38;14.60;46.40
16249;DHT22;8232;51.678;6.610;2022-09-09T02:55:12;14.60;84.00
16249;DHT22;8232;51.678;6.610;2022-09-09T02:57:42;14.60;90.60
16249;DHT22;8232;51.678;6.610;2022-09-09T03:00:13;14.60;91.20
16249;DHT22;8232;51.678;6.610;2022-09-09T03:02:40;14.60;29.90
16249;DHT22;8232;51.678;6.610;2022-09-09T03:05:08;14.60;1.00
16249;DHT22;8232;51.678;6.610;2022-09-09T03:07:34;14.60;1.00
16249;DHT22;8232;51.678;6.610;2022-09-09T03:10:02;14.70;1.00
16249;DHT22;8232;51.678;6.610;2022-09-09T03:12:29;14.60;1.00
16249;DHT22;8232;51.678;6.610;2022-09-09T03:14:56;14.60;1.00
16249;DHT22;8232;51.678;6.610;2022-09-09T03:17:24;14.60;1.00
16249;DHT22;8232;51.678;6.610;2022-09-09T03:19:53;14.70;1.00
16249;DHT22;8232;51.678;6.610;2022-09-09T03:22:20;14.60;1.00
16249;DHT22;8232;51.678;6.610;2022-09-09T03:24:47;14.60;1.00
16249;DHT22;8232;51.678;6.610;2022-09-09T03:27:14;14.60;1.00
16249;DHT22;8232;51.678;6.610;2022-09-09T03:29:41;14.60;1.00
16249;DHT22;8232;51.678;6.610;2022-09-09T03:32:08;14.50;1.00
16249;DHT22;8232;51.678;6.610;2022-09-09T03:34:37;14.60;1.00
16249;DHT22;8232;51.678;6.610;2022-09-09T03:37:05;14.60;1.00
16249;DHT22;8232;51.678;6.610;2022-09-09T03:39:32;14.70;1.00
16249;DHT22;8232;51.678;6.610;2022-09-09T03:41:59;14.70;1.00
16249;DHT22;8232;51.678;6.610;2022-09-09T03:44:29;14.70;1.00
16249;DHT22;8232;51.678;6.610;2022-09-09T03:46:56;14.80;1.00
16249;DHT22;8232;51.678;6.610;2022-09-09T03:49:26;14.80;1.00
16249;DHT22;8232;51.678;6.610;2022-09-09T03:51:55;14.90;1.00
16249;DHT22;8232;51.678;6.610;2022-09-09T03:54:24;15.00;99.90
16249;DHT22;8232;51.678;6.610;2022-09-09T03:56:51;15.00;99.90
16249;DHT22;8232;51.678;6.610;2022-09-09T03:59:18;15.00;99.90
16249;DHT22;8232;51.678;6.610;2022-09-09T04:01:46;15.00;1.00
16249;DHT22;8232;51.678;6.610;2022-09-09T04:04:12;15.00;99.90
16249;DHT22;8232;51.678;6.610;2022-09-09T04:06:39;15.00;99.90
16249;DHT22;8232;51.678;6.610;2022-09-09T04:09:07;15.10;99.90
16249;DHT22;8232;51.678;6.610;2022-09-09T04:11:34;15.00;99.90
16249;DHT22;8232;51.678;6.610;2022-09-09T04:14:02;15.10;62.40
16249;DHT22;8232;51.678;6.610;2022-09-09T04:16:31;15.20;68.10
16249;DHT22;8232;51.678;6.610;2022-09-09T04:18:58;15.20;99.90
16249;DHT22;8232;51.678;6.610;2022-09-09T04:21:25;15.20;1.00
16249;DHT22;8232;51.678;6.610;2022-09-09T04:23:52;15.20;1.00
16249;DHT22;8232;51.678;6.610;2022-09-09T04:26:20;15.20;98.70
16249;DHT22;8232;51.678;6.610;2022-09-09T04:28:47;15.30;1.00
16249;DHT22;8232;51.678;6.610;2022-09-09T04:31:16;15.30;99.90
16249;DHT22;8232;51.678;6.610;2022-09-09T04:33:44;15.30;1.00
16249;DHT22;8232;51.678;6.610;2022-09-09T04:36:11;15.30;99.90
16249;DHT22;8232;51.678;6.610;2022-09-09T04:38:39;15.30;99.90
16249;DHT22;8232;51.678;6.610;2022-09-09T04:41:06;15.40;1.00
16249;DHT22;8232;51.678;6.610;2022-09-09T04:43:38;15.40;75.00
16249;DHT22;8232;51.678;6.610;2022-09-09T04:46:05;15.40;99.90
16249;DHT22;8232;51.678;6.610;2022-09-09T04:48:32;15.40;99.90
16249;DHT22;8232;51.678;6.610;2022-09-09T04:51:00;15.40;1.00
16249;DHT22;8232;51.678;6.610;2022-09-09T04:53:28;15.40;99.90
16249;DHT22;8232;51.678;6.610;2022-09-09T04:56:01;15.50;1.00
16249;DHT22;8232;51.678;6.610;2022-09-09T04:58:28;15.50;1.00
16249;DHT22;8232;51.678;6.610;2022-09-09T05:01:03;15.50;99.90
16249;DHT22;8232;51.678;6.610;2022-09-09T05:03:30;15.50;1.00
16249;DHT22;8232;51.678;6.610;2022-09-09T05:06:02;15.50;99.90
16249;DHT22;8232;51.678;6.610;2022-09-09T05:08:30;15.50;99.90
16249;DHT22;8232;51.678;6.610;2022-09-09T05:10:57;15.50;99.90
16249;DHT22;8232;51.678;6.610;2022-09-09T05:13:25;15.60;99.90
16249;DHT22;8232;51.678;6.610;2022-09-09T05:15:52;15.60;1.00
16249;DHT22;8232;51.678;6.610;2022-09-09T05:18:21;15.60;99.90
16249;DHT22;8232;51.678;6.610;2022-09-09T05:20:48;15.60;99.90
16249;DHT22;8232;51.678;6.610;2022-09-09T05:23:16;15.50;99.90
16249;DHT22;8232;51.678;6.610;2022-09-09T05:25:43;15.60;99.90
16249;DHT22;8232;51.678;6.610;2022-09-09T05:28:12;15.60;99.90
16249;DHT22;8232;51.678;6.610;2022-09-09T05:30:39;15.60;1.00
16249;DHT22;8232;51.678;6.610;2022-09-09T05:33:05;15.60;1.00
16249;DHT22;8232;51.678;6.610;2022-09-09T05:35:36;15.60;1.00
16249;DHT22;8232;51.678;6.610;2022-09-09T05:38:03;15.60;99.90
16249;DHT22;8232;51.678;6.610;2022-09-09T05:40:30;15.60;99.90
16249;DHT22;8232;51.678;6.610;2022-09-09T05:43:00;15.70;1.00
16249;DHT22;8232;51.678;6.610;2022-09-09T05:45:27;15.80;95.40
16249;DHT22;8232;51.678;6.610;2022-09-09T05:47:54;15.80;9.90
16249;DHT22;8232;51.678;6.610;2022-09-09T05:50:20;15.90;1.00
16249;DHT22;8232;51.678;6.610;2022-09-09T05:52:49;15.90;99.90
16249;DHT22;8232;51.678;6.610;2022-09-09T05:55:15;15.90;99.90
16249;DHT22;8232;51.678;6.610;2022-09-09T05:57:48;15.90;1.00
16249;DHT22;8232;51.678;6.610;2022-09-09T06:00:15;16.00;99.90
16249;DHT22;8232;51.678;6.610;2022-09-09T06:02:42;16.10;99.90
16249;DHT22;8232;51.678;6.610;2022-09-09T06:05:09;16.00;81.90
16249;DHT22;8232;51.678;6.610;2022-09-09T06:07:36;16.10;99.90
16249;DHT22;8232;51.678;6.610;2022-09-09T06:10:05;16.30;99.90
16249;DHT22;8232;51.678;6.610;2022-09-09T06:12:32;16.40;73.60
16249;DHT22;8232;51.678;6.610;2022-09-09T06:14:59;16.50;1.00
16249;DHT22;8232;51.678;6.610;2022-09-09T06:17:26;16.60;99.90
16249;DHT22;8232;51.678;6.610;2022-09-09T06:19:53;16.80;11.10
16249;DHT22;8232;51.678;6.610;2022-09-09T06:22:21;16.70;82.70
16249;DHT22;8232;51.678;6.610;2022-09-09T06:24:48;17.10;1.00
16249;DHT22;8232;51.678;6.610;2022-09-09T06:27:16;17.00;1.00
16249;DHT22;8232;51.678;6.610;2022-09-09T06:29:42;16.80;99.90
16249;DHT22;8232;51.678;6.610;2022-09-09T06:32:09;16.70;99.90
16249;DHT22;8232;51.678;6.610;2022-09-09T06:34:36;16.60;99.90
16249;DHT22;8232;51.678;6.610;2022-09-09T06:37:03;16.60;1.00
16249;DHT22;8232;51.678;6.610;2022-09-09T06:39:31;16.70;99.90
16249;DHT22;8232;51.678;6.610;2022-09-09T06:41:58;16.70;99.90
16249;DHT22;8232;51.678;6.610;2022-09-09T06:44:26;16.70;99.90
16249;DHT22;8232;51.678;6.610;2022-09-09T06:46:53;16.70;99.90
16249;DHT22;8232;51.678;6.610;2022-09-09T06:49:20;16.70;1.00
16249;DHT22;8232;51.678;6.610;2022-09-09T06:51:47;16.60;1.00
16249;DHT22;8232;51.678;6.610;2022-09-09T06:54:14;16.60;85.60
16249;DHT22;8232;51.678;6.610;2022-09-09T06:56:42;16.70;1.00
16249;DHT22;8232;51.678;6.610;2022-09-09T06:59:11;17.00;1.00
16249;DHT22;8232;51.678;6.610;2022-09-09T07:01:40;17.10;1.00
16249;DHT22;8232;51.678;6.610;2022-09-09T07:04:08;17.10;1.00
16249;DHT22;8232;51.678;6.610;2022-09-09T07:06:37;17.20;1.00
16249;DHT22;8232;51.678;6.610;2022-09-09T07:09:06;17.30;99.90
16249;DHT22;8232;51.678;6.610;2022-09-09T07:11:37;17.30;1.00
16249;DHT22;8232;51.678;6.610;2022-09-09T07:14:04;17.30;99.90
16249;DHT22;8232;51.678;6.610;2022-09-09T07:16:31;17.40;99.90
16249;DHT22;8232;51.678;6.610;2022-09-09T07:19:00;17.50;99.90
16249;DHT22;8232;51.678;6.610;2022-09-09T07:21:29;17.50;99.90
16249;DHT22;8232;51.678;6.610;2022-09-09T07:23:57;18.00;99.90
16249;DHT22;8232;51.678;6.610;2022-09-09T07:26:27;18.10;99.90
16249;DHT22;8232;51.678;6.610;2022-09-09T07:28:54;19.10;1.00
16249;DHT22;8232;51.678;6.610;2022-09-09T07:31:23;19.20;1.00
16249;DHT22;8232;51.678;6.610;2022-09-09T07:33:50;19.70;1.00
16249;DHT22;8232;51.678;6.610;2022-09-09T07:36:21;20.00;1.00
16249;DHT22;8232;51.678;6.610;2022-09-09T07:38:50;20.10;1.00
16249;DHT22;8232;51.678;6.610;2022-09-09T07:41:19;19.40;1.00
16249;DHT22;8232;51.678;6.610;2022-09-09T07:43:48;19.40;1.00
16249;DHT22;8232;51.678;6.610;2022-09-09T07:46:17;18.80;1.00
16249;DHT22;8232;51.678;6.610;2022-09-09T07:48:45;18.50;1.00
16249;DHT22;8232;51.678;6.610;2022-09-09T07:51:14;19.00;1.00
16249;DHT22;8232;51.678;6.610;2022-09-09T07:53:47;19.00;1.00
16249;DHT22;8232;51.678;6.610;2022-09-09T07:56:16;18.80;1.00
16249;DHT22;8232;51.678;6.610;2022-09-09T07:58:45;18.30;1.00
16249;DHT22;8232;51.678;6.610;2022-09-09T08:01:14;18.00;1.00
16249;DHT22;8232;51.678;6.610;2022-09-09T08:03:42;17.90;1.00
16249;DHT22;8232;51.678;6.610;2022-09-09T08:06:10;18.20;1.00
16249;DHT22;8232;51.678;6.610;2022-09-09T08:08:39;18.20;1.00
16249;DHT22;8232;51.678;6.610;2022-09-09T08:11:10;18.00;1.00
16249;DHT22;8232;51.678;6.610;2022-09-09T08:13:38;18.10;1.00
16249;DHT22;8232;51.678;6.610;2022-09-09T08:16:07;18.40;1.00
16249;DHT22;8232;51.678;6.610;2022-09-09T08:18:34;18.70;1.00
16249;DHT22;8232;51.678;6.610;2022-09-09T08:21:09;19.00;1.00
16249;DHT22;8232;51.678;6.610;2022-09-09T08:23:38;19.00;1.00
16249;DHT22;8232;51.678;6.610;2022-09-09T08:26:11;19.20;1.00
16249;DHT22;8232;51.678;6.610;2022-09-09T08:28:39;19.70;1.00
16249;DHT22;8232;51.678;6.610;2022-09-09T08:31:11;21.20;1.00
16249;DHT22;8232;51.678;6.610;2022-09-09T08:33:39;21.70;1.00
16249;DHT22;8232;51.678;6.610;2022-09-09T08:36:09;22.70;1.00
16249;DHT22;8232;51.678;6.610;2022-09-09T08:38:36;22.20;1.00
16249;DHT22;8232;51.678;6.610;2022-09-09T08:41:22;21.20;1.00
16249;DHT22;8232;51.678;6.610;2022-09-09T08:44:00;21.80;1.00
16249;DHT22;8232;51.678;6.610;2022-09-09T08:46:33;22.40;1.00
16249;DHT22;8232;51.678;6.610;2022-09-09T08:49:10;22.60;1.00
16249;DHT22;8232;51.678;6.610;2022-09-09T08:51:43;21.80;1.00
16249;DHT22;8232;51.678;6.610;2022-09-09T08:54:09;20.30;1.00
16249;DHT22;8232;51.678;6.610;2022-09-09T08:56:38;20.60;1.00
16249;DHT22;8232;51.678;6.610;2022-09-09T08:59:04;21.00;1.00
16249;DHT22;8232;51.678;6.610;2022-09-09T09:01:43;20.60;1.00
16249;DHT22;8232;51.678;6.610;2022-09-09T09:04:28;20.30;1.00
16249;DHT22;8232;51.678;6.610;2022-09-09T09:07:04;19.50;1.00
16249;DHT22;8232;51.678;6.610;2022-09-09T09:09:42;19.60;1.00
16249;DHT22;8232;51.678;6.610;2022-09-09T09:12:18;19.20;1.00
16249;DHT22;8232;51.678;6.610;2022-09-09T09:14:47;19.10;1.00
16249;DHT22;8232;51.678;6.610;2022-09-09T09:17:16;18.80;1.00
16249;DHT22;8232;51.678;6.610;2022-09-09T09:19:45;18.80;1.00
16249;DHT22;8232;51.678;6.610;2022-09-09T09:22:17;18.80;1.00
16249;DHT22;8232;51.678;6.610;2022-09-09T09:24:52;18.60;1.00
16249;DHT22;8232;51.678;6.610;2022-09-09T09:27:30;18.70;1.00
16249;DHT22;8232;51.678;6.610;2022-09-09T09:29:59;18.80;1.00
16249;DHT22;8232;51.678;6.610;2022-09-09T09:32:30;18.70;1.00
16249;DHT22;8232;51.678;6.610;2022-09-09T09:34:58;18.60;1.00
16249;DHT22;8232;51.678;6.610;2022-09-09T09:37:31;18.90;1.00
16249;DHT22;8232;51.678;6.610;2022-09-09T09:40:08;18.80;1.00
16249;DHT22;8232;51.678;6.610;2022-09-09T09:42:37;18.70;1.00
16249;DHT22;8232;51.678;6.610;2022-09-09T09:45:13;18.70;1.00
16249;DHT22;8232;51.678;6.610;2022-09-09T09:47:41;18.50;1.00
16249;DHT22;8232;51.678;6.610;2022-09-09T09:50:17;18.60;1.00
16249;DHT22;8232;51.678;6.610;2022-09-09T09:52:53;19.80;1.00
16249;DHT22;8232;51.678;6.610;2022-09-09T09:55:21;21.60;1.00
16249;DHT22;8232;51.678;6.610;2022-09-09T09:57:49;23.00;1.00
16249;DHT22;8232;51.678;6.610;2022-09-09T10:00:19;23.00;1.00
16249;DHT22;8232;51.678;6.610;2022-09-09T10:02:47;22.80;1.00
16249;DHT22;8232;51.678;6.610;2022-09-09T10:05:16;22.10;1.00
16249;DHT22;8232;51.678;6.610;2022-09-09T10:07:43;24.30;1.00
16249;DHT22;8232;51.678;6.610;2022-09-09T10:10:15;23.40;1.00
16249;DHT22;8232;51.678;6.610;2022-09-09T10:12:51;23.60;1.00
16249;DHT22;8232;51.678;6.610;2022-09-09T10:15:30;21.60;1.00
16249;DHT22;8232;51.678;6.610;2022-09-09T10:18:05;20.20;1.00
16249;DHT22;8232;51.678;6.610;2022-09-09T10:20:39;20.40;1.00
16249;DHT22;8232;51.678;6.610;2022-09-09T10:23:18;20.00;1.00
16249;DHT22;8232;51.678;6.610;2022-09-09T10:26:03;20.20;1.00
16249;DHT22;8232;51.678;6.610;2022-09-09T10:29:04;20.10;1.00
16249;DHT22;8232;51.678;6.610;2022-09-09T10:31:41;20.10;1.00
16249;DHT22;8232;51.678;6.610;2022-09-09T10:34:19;20.10;1.00
16249;DHT22;8232;51.678;6.610;2022-09-09T10:36:50;20.00;1.00
16249;DHT22;8232;51.678;6.610;2022-09-09T10:39:28;20.00;1.00
16249;DHT22;8232;51.678;6.610;2022-09-09T10:42:03;19.80;1.00
16249;DHT22;8232;51.678;6.610;2022-09-09T10:44:50;19.70;1.00
16249;DHT22;8232;51.678;6.610;2022-09-09T10:47:41;19.50;1.00
16249;DHT22;8232;51.678;6.610;2022-09-09T10:50:51;19.40;1.00
16249;DHT22;8232;51.678;6.610;2022-09-09T10:53:28;18.90;1.00
16249;DHT22;8232;51.678;6.610;2022-09-09T10:56:05;18.80;1.00
16249;DHT22;8232;51.678;6.610;2022-09-09T10:58:37;18.80;1.00
16249;DHT22;8232;51.678;6.610;2022-09-09T11:01:12;18.90;1.00
16249;DHT22;8232;51.678;6.610;2022-09-09T11:03:42;18.90;1.00
16249;DHT22;8232;51.678;6.610;2022-09-09T11:06:13;18.80;1.00
16249;DHT22;8232;51.678;6.610;2022-09-09T11:08:42;18.80;1.00
16249;DHT22;8232;51.678;6.610;2022-09-09T11:11:12;18.80;1.00
16249;DHT22;8232;51.678;6.610;2022-09-09T11:13:45;19.00;1.00
16249;DHT22;8232;51.678;6.610;2022-09-09T11:16:22;19.10;1.00
16249;DHT22;8232;51.678;6.610;2022-09-09T11:18:56;19.40;1.00
16249;DHT22;8232;51.678;6.610;2022-09-09T11:21:27;19.40;1.00
16249;DHT22;8232;51.678;6.610;2022-09-09T11:23:57;19.60;1.00
16249;DHT22;8232;51.678;6.610;2022-09-09T11:26:30;19.80;1.00
16249;DHT22;8232;51.678;6.610;2022-09-09T11:29:18;19.70;1.00
16249;DHT22;8232;51.678;6.610;2022-09-09T11:31:59;19.70;1.00
16249;DHT22;8232;51.678;6.610;2022-09-09T11:34:38;19.50;1.00
16249;DHT22;8232;51.678;6.610;2022-09-09T11:37:21;19.40;1.00
16249;DHT22;8232;51.678;6.610;2022-09-09T11:40:09;19.30;1.00
16249;DHT22;8232;51.678;6.610;2022-09-09T11:42:40;19.60;1.00
16249;DHT22;8232;51.678;6.610;2022-09-09T11:45:20;19.90;1.00
16249;DHT22;8232;51.678;6.610;2022-09-09T11:47:55;20.10;1.00
16249;DHT22;8232;51.678;6.610;2022-09-09T11:50:31;20.00;1.00
16249;DHT22;8232;51.678;6.610;2022-09-09T11:53:19;19.80;1.00
16249;DHT22;8232;51.678;6.610;2022-09-09T11:56:10;19.50;1.00
16249;DHT22;8232;51.678;6.610;2022-09-09T11:58:43;18.60;99.90
16249;DHT22;8232;51.678;6.610;2022-09-09T12:01:36;17.80;99.90
16249;DHT22;8232;51.678;6.610;2022-09-09T12:04:28;17.90;99.90
16249;DHT22;8232;51.678;6.610;2022-09-09T12:06:59;18.40;99.90
16249;DHT22;8232;51.678;6.610;2022-09-09T12:09:40;18.80;99.90
16249;DHT22;8232;51.678;6.610;2022-09-09T12:12:26;19.40;1.00
16249;DHT22;8232;51.678;6.610;2022-09-09T12:15:02;19.30;99.90
16249;DHT22;8232;51.678;6.610;2022-09-09T12:17:30;19.00;99.90
16249;DHT22;8232;51.678;6.610;2022-09-09T12:20:12;18.70;1.00
16249;DHT22;8232;51.678;6.610;2022-09-09T12:25:39;18.70;99.90
16249;DHT22;8232;51.678;6.610;2022-09-09T12:28:13;18.70;99.90
16249;DHT22;8232;51.678;6.610;2022-09-09T12:30:48;18.60;99.90
16249;DHT22;8232;51.678;6.610;2022-09-09T12:33:17;18.50;99.90
16249;DHT22;8232;51.678;6.610;2022-09-09T12:35:51;18.00;99.90
16249;DHT22;8232;51.678;6.610;2022-09-09T12:38:26;16.70;99.90
16249;DHT22;8232;51.678;6.610;2022-09-09T12:40:57;16.60;99.90
16249;DHT22;8232;51.678;6.610;2022-09-09T12:43:25;16.50;99.90
16249;DHT22;8232;51.678;6.610;2022-09-09T12:45:55;17.40;99.90
16249;DHT22;8232;51.678;6.610;2022-09-09T12:48:32;19.10;99.90
16249;DHT22;8232;51.678;6.610;2022-09-09T12:51:01;19.70;99.90
16249;DHT22;8232;51.678;6.610;2022-09-09T12:53:31;21.40;99.90
16249;DHT22;8232;51.678;6.610;2022-09-09T12:56:01;23.60;99.90
16249;DHT22;8232;51.678;6.610;2022-09-09T12:58:30;24.10;99.90
16249;DHT22;8232;51.678;6.610;2022-09-09T13:00:59;26.10;99.90
16249;DHT22;8232;51.678;6.610;2022-09-09T13:03:26;28.90;99.90
16249;DHT22;8232;51.678;6.610;2022-09-09T13:05:58;29.60;99.90
16249;DHT22;8232;51.678;6.610;2022-09-09T13:08:27;30.30;99.90
16249;DHT22;8232;51.678;6.610;2022-09-09T13:10:56;31.20;99.90
16249;DHT22;8232;51.678;6.610;2022-09-09T13:13:27;31.40;99.90
16249;DHT22;8232;51.678;6.610;2022-09-09T13:15:56;31.50;99.90
16249;DHT22;8232;51.678;6.610;2022-09-09T13:18:27;31.30;99.90
16249;DHT22;8232;51.678;6.610;2022-09-09T13:20:55;31.00;99.90
16249;DHT22;8232;51.678;6.610;2022-09-09T13:23:28;31.20;99.90
16249;DHT22;8232;51.678;6.610;2022-09-09T13:25:56;31.00;99.90
16249;DHT22;8232;51.678;6.610;2022-09-09T13:28:25;30.80;99.90
16249;DHT22;8232;51.678;6.610;2022-09-09T13:30:57;31.10;99.90
16249;DHT22;8232;51.678;6.610;2022-09-09T13:33:30;31.40;99.90
16249;DHT22;8232;51.678;6.610;2022-09-09T13:36:00;31.50;99.90
16249;DHT22;8232;51.678;6.610;2022-09-09T13:38:32;31.10;99.90
16249;DHT22;8232;51.678;6.610;2022-09-09T13:41:02;31.30;99.90
16249;DHT22;8232;51.678;6.610;2022-09-09T13:43:31;31.30;99.90
16249;DHT22;8232;51.678;6.610;2022-09-09T13:46:01;31.00;99.90
16249;DHT22;8232;51.678;6.610;2022-09-09T13:48:28;30.90;99.90
16249;DHT22;8232;51.678;6.610;2022-09-09T13:50:59;30.60;99.90
16249;DHT22;8232;51.678;6.610;2022-09-09T13:53:27;30.70;99.90
16249;DHT22;8232;51.678;6.610;2022-09-09T13:55:55;30.50;99.90
16249;DHT22;8232;51.678;6.610;2022-09-09T13:58:23;30.60;99.90
16249;DHT22;8232;51.678;6.610;2022-09-09T14:00:51;29.60;99.90
16249;DHT22;8232;51.678;6.610;2022-09-09T14:03:19;29.40;99.90
16249;DHT22;8232;51.678;6.610;2022-09-09T14:05:46;29.20;99.90
16249;DHT22;8232;51.678;6.610;2022-09-09T14:08:22;28.60;99.90
16249;DHT22;8232;51.678;6.610;2022-09-09T14:10:50;28.00;99.90
16249;DHT22;8232;51.678;6.610;2022-09-09T14:13:19;27.60;99.90
16249;DHT22;8232;51.678;6.610;2022-09-09T14:15:48;27.70;99.90
16249;DHT22;8232;51.678;6.610;2022-09-09T14:18:15;27.60;99.90
16249;DHT22;8232;51.678;6.610;2022-09-09T14:20:41;27.60;99.90
16249;DHT22;8232;51.678;6.610;2022-09-09T14:23:11;27.20;99.90
16249;DHT22;8232;51.678;6.610;2022-09-09T14:25:40;26.60;99.90
16249;DHT22;8232;51.678;6.610;2022-09-09T14:28:10;26.80;99.90
16249;DHT22;8232;51.678;6.610;2022-09-09T14:30:39;26.40;99.90
16249;DHT22;8232;51.678;6.610;2022-09-09T14:33:07;26.60;99.90
16249;DHT22;8232;51.678;6.610;2022-09-09T14:35:34;26.40;99.90
16249;DHT22;8232;51.678;6.610;2022-09-09T14:38:02;26.50;99.90
16249;DHT22;8232;51.678;6.610;2022-09-09T14:40:29;25.50;99.90
16249;DHT22;8232;51.678;6.610;2022-09-09T14:42:56;25.20;99.90
16249;DHT22;8232;51.678;6.610;2022-09-09T14:45:24;24.70;99.90
16249;DHT22;8232;51.678;6.610;2022-09-09T14:47:53;24.20;99.90
16249;DHT22;8232;51.678;6.610;2022-09-09T14:50:20;23.90;99.90
16249;DHT22;8232;51.678;6.610;2022-09-09T14:52:48;22.20;99.90
16249;DHT22;8232;51.678;6.610;2022-09-09T14:55:16;18.80;99.90
16249;DHT22;8232;51.678;6.610;2022-09-09T14:57:43;18.30;99.90
16249;DHT22;8232;51.678;6.610;2022-09-09T15:00:10;18.40;99.90
16249;DHT22;8232;51.678;6.610;2022-09-09T15:02:37;18.20;99.90
16249;DHT22;8232;51.678;6.610;2022-09-09T15:05:06;18.00;1.00
16249;DHT22;8232;51.678;6.610;2022-09-09T15:07:33;17.30;99.90
16249;DHT22;8232;51.678;6.610;2022-09-09T15:10:01;17.50;99.90
16249;DHT22;8232;51.678;6.610;2022-09-09T15:12:28;17.70;90.10
16249;DHT22;8232;51.678;6.610;2022-09-09T15:14:55;17.50;1.00
16249;DHT22;8232;51.678;6.610;2022-09-09T15:17:23;17.30;1.00
16249;DHT22;8232;51.678;6.610;2022-09-09T15:19:52;17.30;1.00
16249;DHT22;8232;51.678;6.610;2022-09-09T15:22:21;17.20;1.00
16249;DHT22;8232;51.678;6.610;2022-09-09T15:24:49;17.30;99.90
16249;DHT22;8232;51.678;6.610;2022-09-09T15:27:16;17.50;99.90
16249;DHT22;8232;51.678;6.610;2022-09-09T15:29:43;17.90;99.90
16249;DHT22;8232;51.678;6.610;2022-09-09T15:32:10;17.90;99.90
16249;DHT22;8232;51.678;6.610;2022-09-09T15:34:37;18.00;99.90
16249;DHT22;8232;51.678;6.610;2022-09-09T15:37:05;18.20;99.90
16249;DHT22;8232;51.678;6.610;2022-09-09T15:39:34;17.90;99.90
16249;DHT22;8232;51.678;6.610;2022-09-09T15:42:01;18.10;91.10
16249;DHT22;8232;51.678;6.610;2022-09-09T15:44:28;18.00;52.90
16249;DHT22;8232;51.678;6.610;2022-09-09T15:46:54;18.00;41.70
16249;DHT22;8232;51.678;6.610;2022-09-09T15:49:23;18.00;30.30
16249;DHT22;8232;51.678;6.610;2022-09-09T15:51:52;18.20;17.30
16249;DHT22;8232;51.678;6.610;2022-09-09T15:54:20;18.20;15.60
16249;DHT22;8232;51.678;6.610;2022-09-09T15:56:53;18.10;14.70
16249;DHT22;8232;51.678;6.610;2022-09-09T15:59:21;17.80;19.00
16249;DHT22;8232;51.678;6.610;2022-09-09T16:01:49;17.90;19.20
16249;DHT22;8232;51.678;6.610;2022-09-09T16:04:17;17.90;16.20
16249;DHT22;8232;51.678;6.610;2022-09-09T16:06:49;17.80;14.90
16249;DHT22;8232;51.678;6.610;2022-09-09T16:09:17;17.70;17.20
16249;DHT22;8232;51.678;6.610;2022-09-09T16:11:44;17.80;7.10
16249;DHT22;8232;51.678;6.610;2022-09-09T16:14:14;17.80;8.70
16249;DHT22;8232;51.678;6.610;2022-09-09T16:16:42;17.90;3.80
16249;DHT22;8232;51.678;6.610;2022-09-09T16:19:11;17.80;5.40